Time;durP1;ratioP1;P1;durP2;ratioP2;P2;SDS_P1;SDS_P2;PMS_P1;PMS_P2;Temp;Humidity;BMP_temperature;BMP_pressure;BME280_temperature;BME280_humidity;BME280_pressure;Samples;Min_cycle;Max_cycle;Signal;HPM_P1;HPM_P2
2023/01/02 00:01:43;;;;;;;141.43;15.57;;;;;;;;;;6151785;23;20153;-91
2023/01/02 00:04:49;;;;;;;123.73;17.13;;;;;;;;;;6152118;23;20176;-87
2023/01/02 00:07:55;;;;;;;89.90;14.30;;;;;;;;;;6151834;23;20169;-90
2023/01/02 00:11:00;;;;;;;80.10;10.77;;;;;;;;;;6151759;23;20237;-88
2023/01/02 00:14:07;;;;;;;35.57;11.90;;;;;;;;;;6150824;23;20184;-88
2023/01/02 00:17:12;;;;;;;48.47;16.33;;;;;;;;;;6151505;23;20172;-91
2023/01/02 00:20:17;;;;;;;49.47;11.40;;;;;;;;;;6151147;23;20507;-89
2023/01/02 00:23:22;;;;;;;47.07;10.47;;;;;;;;;;6150855;23;20175;-92
2023/01/02 00:26:27;;;;;;;61.83;10.40;;;;;;;;;;6150800;23;20160;-90
2023/01/02 00:29:34;;;;;;;105.17;13.50;;;;;;;;;;6148896;23;20168;-88
2023/01/02 00:32:39;;;;;;;78.80;12.80;;;;;;;;;;6150416;23;20220;-90
2023/01/02 00:35:44;;;;;;;33.07;9.93;;;;;;;;;;6148517;23;20180;-93
2023/01/02 00:38:49;;;;;;;73.57;10.10;;;;;;;;;;6150096;23;20176;-91
2023/01/02 00:41:55;;;;;;;82.70;14.90;;;;;;;;;;6148518;23;20502;-93
2023/01/02 00:45:02;;;;;;;97.80;10.93;;;;;;;;;;6148876;23;20225;-90
2023/01/02 00:48:07;;;;;;;40.03;10.30;;;;;;;;;;6149189;23;20168;-91
2023/01/02 00:51:12;;;;;;;38.70;8.50;;;;;;;;;;6138648;23;20192;-91
2023/01/02 00:54:17;;;;;;;59.57;11.67;;;;;;;;;;6118376;23;20196;-90
2023/01/02 00:57:22;;;;;;;71.63;9.87;;;;;;;;;;6119306;23;20784;-88
2023/01/02 01:00:29;;;;;;;107.53;16.70;;;;;;;;;;6119628;23;20165;-90
2023/01/02 01:03:34;;;;;;;36.83;9.93;;;;;;;;;;6118629;23;20168;-88
2023/01/02 01:06:39;;;;;;;41.43;7.90;;;;;;;;;;6120788;23;20165;-91
2023/01/02 01:09:44;;;;;;;52.93;8.40;;;;;;;;;;6120112;23;20164;-86
2023/01/02 01:12:49;;;;;;;45.77;9.07;;;;;;;;;;6121395;23;20333;-89
2023/01/02 01:15:55;;;;;;;66.07;8.97;;;;;;;;;;6120739;23;20181;-88
2023/01/02 01:19:00;;;;;;;33.60;8.27;;;;;;;;;;6121262;23;20190;-89
2023/01/02 01:22:06;;;;;;;31.27;8.40;;;;;;;;;;6123355;23;20169;-90
2023/01/02 01:25:11;;;;;;;46.77;9.63;;;;;;;;;;6123374;23;20223;-87
2023/01/02 01:28:16;;;;;;;51.90;7.93;;;;;;;;;;6124580;23;20166;-89
2023/01/02 01:31:23;;;;;;;29.03;8.47;;;;;;;;;;6123359;23;20213;-88
2023/01/02 01:34:28;;;;;;;58.73;9.43;;;;;;;;;;6124550;23;20189;-89
2023/01/02 01:37:33;;;;;;;42.03;8.87;;;;;;;;;;6124416;23;20588;-89
2023/01/02 01:40:39;;;;;;;68.60;9.13;;;;;;;;;;6123977;23;20173;-88
2023/01/02 01:43:48;;;;;;;60.67;7.93;;;;;;;;;;6125076;23;20217;-92
2023/01/02 01:46:55;;;;;;;53.23;7.97;;;;;;;;;;6123110;23;20282;-88
2023/01/02 01:50:02;;;;;;;49.30;7.80;;;;;;;;;;6124301;23;20157;-87
2023/01/02 01:53:10;;;;;;;65.53;9.13;;;;;;;;;;6123259;23;20312;-87
2023/01/02 01:56:16;;;;;;;53.97;8.70;;;;;;;;;;6122752;23;20173;-86
2023/01/02 01:59:21;;;;;;;46.10;8.50;;;;;;;;;;6123088;23;20157;-89
2023/01/02 02:02:29;;;;;;;40.37;8.27;;;;;;;;;;6122573;23;20165;-89
2023/01/02 02:05:36;;;;;;;55.33;8.50;;;;;;;;;;6122943;23;20152;-88
2023/01/02 02:08:46;;;;;;;37.67;7.73;;;;;;;;;;6120567;23;20169;-87
2023/01/02 02:11:51;;;;;;;40.97;7.83;;;;;;;;;;6121982;23;20165;-87
2023/01/02 02:14:56;;;;;;;40.50;8.50;;;;;;;;;;6121016;23;20253;-90
2023/01/02 02:18:09;;;;;;;55.50;8.17;;;;;;;;;;6120878;23;20185;-89
2023/01/02 02:21:22;;;;;;;65.23;8.60;;;;;;;;;;6122218;23;20170;-91
2023/01/02 02:24:37;;;;;;;61.13;8.37;;;;;;;;;;6121750;23;20217;-87
2023/01/02 02:27:51;;;;;;;52.77;8.60;;;;;;;;;;6122198;23;20173;-89
2023/01/02 02:31:03;;;;;;;67.50;8.77;;;;;;;;;;6121792;23;20165;-89
2023/01/02 02:34:11;;;;;;;54.73;9.10;;;;;;;;;;6121694;23;20187;-89
2023/01/02 02:37:18;;;;;;;67.50;9.93;;;;;;;;;;6121272;23;20177;-87
2023/01/02 02:40:28;;;;;;;69.37;8.53;;;;;;;;;;6123340;23;20219;-89
2023/01/02 02:43:50;;;;;;;63.77;8.43;;;;;;;;;;6122794;23;20181;-90
2023/01/02 02:47:00;;;;;;;56.80;8.33;;;;;;;;;;6122794;23;20295;-88
2023/01/02 02:50:10;;;;;;;59.50;8.63;;;;;;;;;;6122052;23;20165;-88
2023/01/02 02:53:20;;;;;;;73.63;8.30;;;;;;;;;;6138977;23;20223;-90
2023/01/02 02:56:26;;;;;;;63.33;8.63;;;;;;;;;;6140558;23;20181;-89
2023/01/02 02:59:31;;;;;;;88.30;9.60;;;;;;;;;;6139228;23;20173;-88
2023/01/02 03:02:38;;;;;;;51.97;9.43;;;;;;;;;;6140129;23;20152;-88
2023/01/02 03:05:44;;;;;;;64.93;9.37;;;;;;;;;;6138771;23;20290;-91
2023/01/02 03:08:56;;;;;;;81.03;10.80;;;;;;;;;;6139351;23;20157;-88
2023/01/02 03:12:08;;;;;;;59.70;9.57;;;;;;;;;;6140100;23;20173;-89
2023/01/02 03:15:17;;;;;;;81.10;9.50;;;;;;;;;;6137634;23;20646;-90
2023/01/02 03:18:30;;;;;;;41.87;8.57;;;;;;;;;;6139867;23;20165;-90
2023/01/02 03:21:36;;;;;;;66.37;9.30;;;;;;;;;;6138909;23;20173;-88
2023/01/02 03:24:42;;;;;;;81.33;8.50;;;;;;;;;;6139931;23;20178;-88
2023/01/02 03:27:49;;;;;;;93.73;9.20;;;;;;;;;;6138162;23;20165;-88
2023/01/02 03:30:57;;;;;;;87.87;8.57;;;;;;;;;;6138887;23;20166;-90
2023/01/02 03:34:05;;;;;;;82.43;7.90;;;;;;;;;;6140862;23;20201;-90
2023/01/02 03:37:12;;;;;;;82.70;8.63;;;;;;;;;;6140337;23;20245;-88
2023/01/02 03:40:20;;;;;;;70.03;7.27;;;;;;;;;;6141228;23;20182;-90
2023/01/02 03:43:28;;;;;;;97.73;8.37;;;;;;;;;;6140793;23;20292;-89
2023/01/02 03:46:35;;;;;;;72.27;8.47;;;;;;;;;;6139604;23;20627;-89
2023/01/02 03:49:43;;;;;;;121.17;8.90;;;;;;;;;;6141279;23;20165;-89
2023/01/02 03:52:48;;;;;;;129.33;10.07;;;;;;;;;;6152138;23;20187;-88
2023/01/02 03:55:59;;;;;;;87.67;9.03;;;;;;;;;;6152983;23;20193;-88
2023/01/02 03:59:07;;;;;;;53.33;7.93;;;;;;;;;;6152275;23;20164;-88
2023/01/02 04:02:15;;;;;;;55.40;8.03;;;;;;;;;;6150593;23;20169;-88
2023/01/02 04:05:25;;;;;;;61.13;7.53;;;;;;;;;;6150834;23;20195;-90
2023/01/02 04:08:33;;;;;;;108.63;8.63;;;;;;;;;;6150160;23;20148;-87
2023/01/02 04:11:41;;;;;;;60.10;7.93;;;;;;;;;;6149999;23;20240;-89
2023/01/02 04:14:48;;;;;;;57.57;8.53;;;;;;;;;;6150034;23;20261;-90
2023/01/02 04:17:57;;;;;;;91.30;7.63;;;;;;;;;;6151341;23;20171;-90
2023/01/02 04:21:08;;;;;;;71.30;7.47;;;;;;;;;;6151824;23;20168;-90
2023/01/02 04:24:16;;;;;;;51.17;7.43;;;;;;;;;;6151033;23;20272;-90
2023/01/02 04:27:22;;;;;;;76.30;7.60;;;;;;;;;;6150120;23;20168;-88
2023/01/02 04:30:30;;;;;;;68.63;7.90;;;;;;;;;;6150985;23;20241;-88
2023/01/02 04:33:37;;;;;;;94.33;8.33;;;;;;;;;;6151016;23;20188;-88
2023/01/02 04:36:43;;;;;;;90.53;10.13;;;;;;;;;;6151213;23;20244;-90
2023/01/02 04:39:48;;;;;;;64.30;8.67;;;;;;;;;;6152840;23;20172;-92
2023/01/02 04:42:58;;;;;;;114.13;8.77;;;;;;;;;;6152063;23;20232;-88
2023/01/02 04:46:03;;;;;;;82.77;8.03;;;;;;;;;;6154883;23;20197;-90
2023/01/02 04:49:08;;;;;;;47.60;6.80;;;;;;;;;;6153631;23;20168;-88
2023/01/02 04:52:15;;;;;;;77.03;7.93;;;;;;;;;;6154070;23;20212;-89
2023/01/02 04:55:20;;;;;;;65.50;8.27;;;;;;;;;;6154543;23;20224;-86
2023/01/02 04:58:26;;;;;;;59.67;7.33;;;;;;;;;;6153084;23;20168;-88
2023/01/02 05:01:31;;;;;;;33.67;7.20;;;;;;;;;;6154726;23;20509;-90
2023/01/02 05:04:36;;;;;;;67.43;8.07;;;;;;;;;;6151535;23;20171;-87
2023/01/02 05:07:42;;;;;;;80.07;7.40;;;;;;;;;;6152774;23;20190;-89
2023/01/02 05:10:49;;;;;;;55.33;7.67;;;;;;;;;;6152195;23;20169;-90
2023/01/02 05:13:54;;;;;;;46.97;7.00;;;;;;;;;;6152636;23;20189;-87
2023/01/02 05:16:59;;;;;;;52.63;6.43;;;;;;;;;;6152383;23;20245;-90
2023/01/02 05:20:05;;;;;;;47.63;6.60;;;;;;;;;;6153177;23;20171;-91
2023/01/02 05:26:35;;;;;;;56.37;7.17;;;;;;;;;;6153231;23;20176;-87
2023/01/02 05:29:40;;;;;;;46.63;6.27;;;;;;;;;;6155084;23;20173;-90
2023/01/02 05:32:45;;;;;;;43.47;6.87;;;;;;;;;;6153370;23;20164;-91
2023/01/02 05:35:50;;;;;;;42.83;6.37;;;;;;;;;;6153371;23;20277;-89
2023/01/02 05:38:57;;;;;;;45.53;6.17;;;;;;;;;;6155192;23;20615;-90
2023/01/02 05:42:03;;;;;;;30.23;6.40;;;;;;;;;;6151854;23;20429;-87
2023/01/02 05:45:10;;;;;;;86.43;8.40;;;;;;;;;;6152579;23;20224;-88
2023/01/02 05:48:16;;;;;;;62.87;7.13;;;;;;;;;;6153664;23;20239;-90
2023/01/02 05:51:21;;;;;;;57.30;7.10;;;;;;;;;;6140754;23;20189;-91
2023/01/02 05:54:30;;;;;;;66.57;7.63;;;;;;;;;;6122937;23;20189;-88
2023/01/02 05:57:35;;;;;;;56.40;7.13;;;;;;;;;;6122377;23;20628;-90
2023/01/02 06:00:40;;;;;;;57.33;6.80;;;;;;;;;;6121731;23;20169;-89
2023/01/02 06:03:46;;;;;;;84.60;8.33;;;;;;;;;;6121495;23;20177;-89
2023/01/02 06:06:51;;;;;;;70.47;7.97;;;;;;;;;;6123151;23;20217;-89
2023/01/02 06:09:57;;;;;;;58.53;7.90;;;;;;;;;;6124358;23;20214;-90
2023/01/02 06:13:03;;;;;;;72.13;7.93;;;;;;;;;;6122053;23;20612;-89
2023/01/02 06:16:10;;;;;;;50.73;7.33;;;;;;;;;;6123920;23;20323;-90
2023/01/02 06:19:15;;;;;;;66.40;8.20;;;;;;;;;;6122647;23;20181;-87
2023/01/02 06:22:20;;;;;;;76.33;8.37;;;;;;;;;;6122951;23;20254;-89
2023/01/02 06:25:27;;;;;;;103.67;9.93;;;;;;;;;;6124921;23;20177;-90
2023/01/02 06:28:33;;;;;;;46.97;9.10;;;;;;;;;;6122344;23;20169;-88
2023/01/02 06:31:38;;;;;;;62.30;7.93;;;;;;;;;;6124173;23;20246;-87
2023/01/02 06:34:43;;;;;;;78.17;8.27;;;;;;;;;;6123682;23;20627;-90
2023/01/02 06:37:49;;;;;;;55.50;8.47;;;;;;;;;;6123861;23;20241;-87
2023/01/02 06:40:56;;;;;;;57.37;7.37;;;;;;;;;;6122656;23;20258;-87
2023/01/02 06:44:01;;;;;;;47.87;7.17;;;;;;;;;;6120921;23;20161;-88
2023/01/02 06:47:06;;;;;;;49.67;6.90;;;;;;;;;;6121369;23;20177;-91
2023/01/02 06:50:11;;;;;;;43.67;7.13;;;;;;;;;;6122095;23;20198;-89
2023/01/02 06:53:16;;;;;;;43.53;6.90;;;;;;;;;;6121491;23;20169;-89
2023/01/02 06:56:23;;;;;;;57.37;7.30;;;;;;;;;;6120206;23;20289;-90
2023/01/02 06:59:28;;;;;;;81.13;7.77;;;;;;;;;;6120271;23;20165;-91
2023/01/02 07:02:33;;;;;;;58.53;7.10;;;;;;;;;;6124842;23;20173;-89
2023/01/02 07:05:38;;;;;;;36.70;7.37;;;;;;;;;;6125221;23;20172;-89
2023/01/02 07:08:43;;;;;;;57.70;9.43;;;;;;;;;;6123509;23;20165;-89
2023/01/02 07:11:54;;;;;;;67.10;10.43;;;;;;;;;;6123324;23;20281;-90
2023/01/02 07:14:59;;;;;;;72.70;8.43;;;;;;;;;;6121969;23;20206;-91
2023/01/02 07:18:05;;;;;;;35.67;7.53;;;;;;;;;;6124006;23;20165;-90
2023/01/02 07:21:11;;;;;;;35.97;7.20;;;;;;;;;;6123478;23;20178;-89
2023/01/02 07:24:16;;;;;;;40.87;7.93;;;;;;;;;;6124569;23;20181;-89
2023/01/02 07:27:24;;;;;;;45.00;6.50;;;;;;;;;;6124057;23;20173;-89
2023/01/02 07:30:29;;;;;;;33.60;6.77;;;;;;;;;;6125270;23;20153;-91
2023/01/02 07:33:34;;;;;;;53.10;6.83;;;;;;;;;;6123889;23;20161;-88
2023/01/02 07:36:39;;;;;;;63.17;6.97;;;;;;;;;;6122936;23;20174;-89
2023/01/02 07:39:44;;;;;;;50.20;7.83;;;;;;;;;;6125278;23;20164;-90
2023/01/02 07:42:51;;;;;;;58.17;8.40;;;;;;;;;;6124219;23;20165;-90
2023/01/02 07:46:02;;;;;;;75.00;8.47;;;;;;;;;;6125024;23;20169;-91
2023/01/02 07:49:08;;;;;;;43.03;8.30;;;;;;;;;;6123302;23;20153;-89
2023/01/02 07:52:13;;;;;;;34.67;9.17;;;;;;;;;;6140635;23;20233;-92
2023/01/02 07:58:39;;;;;;;50.47;6.83;;;;;;;;;;6142401;23;20162;-90
2023/01/02 08:01:55;;;;;;;35.33;9.93;;;;;;;;;;6141613;23;20624;-89
2023/01/02 08:05:00;;;;;;;41.57;7.33;;;;;;;;;;6141086;23;20168;-91
2023/01/02 08:08:05;;;;;;;42.83;8.13;;;;;;;;;;6140856;23;20230;-90
2023/01/02 08:11:11;;;;;;;32.90;9.63;;;;;;;;;;6142247;23;20240;-91
2023/01/02 08:14:18;;;;;;;76.37;9.40;;;;;;;;;;6139631;23;20165;-89
2023/01/02 08:17:23;;;;;;;70.57;12.27;;;;;;;;;;6138535;23;20218;-89
2023/01/02 08:20:28;;;;;;;57.80;12.73;;;;;;;;;;6141666;23;20180;-90
2023/01/02 08:23:33;;;;;;;50.43;8.83;;;;;;;;;;6140069;23;20298;-89
2023/01/02 08:26:38;;;;;;;43.13;8.20;;;;;;;;;;6141935;23;20169;-89
2023/01/02 08:29:45;;;;;;;34.27;6.50;;;;;;;;;;6140931;23;20238;-89
2023/01/02 08:32:50;;;;;;;57.77;8.20;;;;;;;;;;6139535;23;20161;-89
2023/01/02 08:35:56;;;;;;;34.13;7.53;;;;;;;;;;6138056;23;20197;-90
2023/01/02 08:39:01;;;;;;;73.77;8.50;;;;;;;;;;6139017;23;20174;-90
2023/01/02 08:42:06;;;;;;;36.83;6.67;;;;;;;;;;6139978;23;20494;-90
2023/01/02 08:45:14;;;;;;;44.90;8.23;;;;;;;;;;6140929;23;20177;-89
2023/01/02 08:48:19;;;;;;;40.97;8.10;;;;;;;;;;6139472;23;20174;-92
2023/01/02 08:51:25;;;;;;;60.13;9.47;;;;;;;;;;6139792;23;20210;-91
2023/01/02 08:54:30;;;;;;;58.40;8.93;;;;;;;;;;6123382;23;20190;-89
2023/01/02 08:57:35;;;;;;;51.73;8.60;;;;;;;;;;6122922;23;20247;-90
2023/01/02 09:00:41;;;;;;;42.40;7.93;;;;;;;;;;6122257;23;20509;-90
2023/01/02 09:03:47;;;;;;;27.43;7.13;;;;;;;;;;6123225;23;20183;-88
2023/01/02 09:06:52;;;;;;;19.90;7.80;;;;;;;;;;6120719;23;20169;-90
2023/01/02 09:09:57;;;;;;;31.40;8.57;;;;;;;;;;6121879;23;20165;-89
2023/01/02 09:13:03;;;;;;;41.40;7.87;;;;;;;;;;6122206;23;20169;-90
2023/01/02 09:16:10;;;;;;;39.03;7.93;;;;;;;;;;6123074;23;20276;-91
2023/01/02 09:19:15;;;;;;;54.63;9.37;;;;;;;;;;6119276;23;20177;-89
2023/01/02 09:22:21;;;;;;;49.33;9.37;;;;;;;;;;6120478;23;20150;-88
2023/01/02 09:25:26;;;;;;;47.97;8.53;;;;;;;;;;6120543;23;20177;-87
2023/01/02 09:28:33;;;;;;;48.40;8.63;;;;;;;;;;6120938;23;20169;-90
2023/01/02 09:31:39;;;;;;;28.30;7.47;;;;;;;;;;6122647;23;20184;-90
2023/01/02 09:34:49;;;;;;;34.50;8.83;;;;;;;;;;6120986;23;20166;-89
2023/01/02 09:37:54;;;;;;;30.97;8.73;;;;;;;;;;6123956;23;20235;-87
2023/01/02 09:41:03;;;;;;;24.17;8.60;;;;;;;;;;6123659;23;20227;-87
2023/01/02 09:44:12;;;;;;;25.83;9.63;;;;;;;;;;6122739;23;20608;-85
2023/01/02 09:47:19;;;;;;;46.23;9.77;;;;;;;;;;6122932;23;20185;-90
2023/01/02 09:50:26;;;;;;;28.10;9.13;;;;;;;;;;6121244;23;20245;-91
2023/01/02 09:53:34;;;;;;;43.07;9.07;;;;;;;;;;6120065;23;20225;-90
2023/01/02 09:56:41;;;;;;;50.67;10.33;;;;;;;;;;6121597;23;20223;-89
2023/01/02 09:59:49;;;;;;;43.03;10.53;;;;;;;;;;6120480;23;20249;-90
2023/01/02 10:03:03;;;;;;;51.47;10.33;;;;;;;;;;6120454;23;20165;-89
2023/01/02 10:06:10;;;;;;;50.43;10.27;;;;;;;;;;6120341;23;20184;-88
2023/01/02 10:09:18;;;;;;;82.50;10.83;;;;;;;;;;6123098;23;20168;-88
2023/01/02 10:12:27;;;;;;;31.57;9.63;;;;;;;;;;6122532;23;20166;-91
2023/01/02 10:15:33;;;;;;;61.63;9.87;;;;;;;;;;6122052;23;20204;-90
2023/01/02 10:18:42;;;;;;;37.53;8.87;;;;;;;;;;6121755;23;20242;-90
2023/01/02 10:21:48;;;;;;;41.13;10.87;;;;;;;;;;6119598;23;20173;-89
2023/01/02 10:24:58;;;;;;;39.03;12.57;;;;;;;;;;6120020;23;20169;-91
2023/01/02 10:28:07;;;;;;;34.87;9.60;;;;;;;;;;6119318;23;20161;-90
2023/01/02 10:31:15;;;;;;;20.13;9.83;;;;;;;;;;6120485;23;20168;-90
2023/01/02 10:34:22;;;;;;;18.93;9.20;;;;;;;;;;6120539;23;20169;-88
2023/01/02 10:37:28;;;;;;;16.17;8.20;;;;;;;;;;6120409;23;20169;-87
2023/01/02 10:40:33;;;;;;;15.43;8.83;;;;;;;;;;6104654;23;20169;-89
2023/01/02 10:43:38;;;;;;;16.13;9.77;;;;;;;;;;6118764;23;20165;-89
2023/01/02 10:46:43;;;;;;;20.40;11.27;;;;;;;;;;6120148;23;20190;-90
2023/01/02 10:49:50;;;;;;;18.17;10.47;;;;;;;;;;6119978;23;20165;-90
2023/01/02 10:53:05;;;;;;;16.40;8.53;;;;;;;;;;6118555;23;20164;-89
2023/01/02 10:56:17;;;;;;;13.37;7.50;;;;;;;;;;6118728;23;20197;-88
2023/01/02 10:59:23;;;;;;;13.67;7.40;;;;;;;;;;6120543;23;20168;-89
2023/01/02 11:02:30;;;;;;;16.33;8.10;;;;;;;;;;6120528;23;20480;-88
2023/01/02 11:05:44;;;;;;;19.93;9.17;;;;;;;;;;6120629;23;20173;-89
2023/01/02 11:08:56;;;;;;;20.30;9.90;;;;;;;;;;6121305;23;20146;-90
2023/01/02 11:12:10;;;;;;;20.83;9.57;;;;;;;;;;6118910;23;20173;-87
2023/01/02 11:15:24;;;;;;;19.87;10.03;;;;;;;;;;6118462;23;20176;-90
2023/01/02 11:18:30;;;;;;;21.17;9.30;;;;;;;;;;6118941;23;20218;-89
2023/01/02 11:21:37;;;;;;;22.67;12.33;;;;;;;;;;6118377;23;20165;-87
2023/01/02 11:24:56;;;;;;;31.80;16.33;;;;;;;;;;6117933;23;20173;-88
2023/01/02 11:28:02;;;;;;;29.63;14.90;;;;;;;;;;6118317;23;20221;-88
2023/01/02 11:31:08;;;;;;;22.13;11.80;;;;;;;;;;6135458;23;20173;-89
2023/01/02 11:34:19;;;;;;;25.50;11.50;;;;;;;;;;6120209;23;20169;-89
2023/01/02 11:37:26;;;;;;;25.83;11.30;;;;;;;;;;6120395;23;20202;-88
2023/01/02 11:40:32;;;;;;;25.85;11.20;;;;;;;;;;6119251;23;20165;-89
2023/01/02 11:43:48;;;;;;;27.27;13.60;;;;;;;;;;6118735;23;20157;-90
2023/01/02 11:46:54;;;;;;;26.30;13.18;;;;;;;;;;6119314;23;20692;-91
2023/01/02 11:49:59;;;;;;;30.45;13.45;;;;;;;;;;6119394;23;20628;-88
2023/01/02 11:53:08;;;;;;;30.23;14.68;;;;;;;;;;6119444;23;20156;-89
2023/01/02 11:56:15;;;;;;;37.05;14.65;;;;;;;;;;6118090;23;20208;-88
2023/01/02 11:59:23;;;;;;;38.38;16.05;;;;;;;;;;6119058;23;20168;-89
2023/01/02 12:02:37;;;;;;;25.20;12.50;;;;;;;;;;6119744;23;20228;-90
2023/01/02 12:05:47;;;;;;;36.95;14.63;;;;;;;;;;6120290;23;20169;-90
2023/01/02 12:09:04;;;;;;;28.52;12.52;;;;;;;;;;6121341;23;20497;-90
2023/01/02 12:12:24;;;;;;;22.38;11.80;;;;;;;;;;6122896;23;20165;-89
2023/01/02 12:15:54;;;;;;;26.50;12.60;;;;;;;;;;6120448;23;20173;-90
2023/01/02 12:19:15;;;;;;;29.75;13.20;;;;;;;;;;6119393;23;20216;-89
2023/01/02 12:22:33;;;;;;;27.88;13.18;;;;;;;;;;6118433;23;20213;-89
2023/01/02 12:25:46;;;;;;;26.83;12.90;;;;;;;;;;6119150;23;20170;-88
2023/01/02 12:28:56;;;;;;;25.73;11.88;;;;;;;;;;6120479;23;20177;-89
2023/01/02 12:32:18;;;;;;;25.75;12.30;;;;;;;;;;6120899;23;20193;-90
2023/01/02 12:35:33;;;;;;;23.98;12.35;;;;;;;;;;6119884;23;20228;-90
2023/01/02 12:38:44;;;;;;;23.60;12.23;;;;;;;;;;6120484;23;20161;-90
2023/01/02 12:41:56;;;;;;;26.05;12.35;;;;;;;;;;6119102;23;20177;-89
2023/01/02 12:45:01;;;;;;;23.42;11.95;;;;;;;;;;6119840;23;20173;-91
2023/01/02 12:48:14;;;;;;;20.92;11.07;;;;;;;;;;6120708;23;20198;-90
2023/01/02 12:51:21;;;;;;;25.40;12.40;;;;;;;;;;6120457;23;20237;-90
2023/01/02 12:54:35;;;;;;;22.50;12.10;;;;;;;;;;6120875;23;20174;-90
2023/01/02 12:57:47;;;;;;;21.33;11.50;;;;;;;;;;6119576;23;20199;-92
2023/01/02 13:00:57;;;;;;;22.55;11.85;;;;;;;;;;6120669;23;20660;-88
2023/01/02 13:04:07;;;;;;;26.23;13.05;;;;;;;;;;6122647;23;20217;-89
2023/01/02 13:07:13;;;;;;;25.58;13.05;;;;;;;;;;6122245;23;20169;-91
2023/01/02 13:10:21;;;;;;;26.00;13.15;;;;;;;;;;6120927;23;20185;-89
2023/01/02 13:13:31;;;;;;;22.52;11.60;;;;;;;;;;6121948;23;20169;-90
2023/01/02 13:16:36;;;;;;;29.90;14.07;;;;;;;;;;6122395;23;20566;-90
2023/01/02 13:19:44;;;;;;;27.02;14.13;;;;;;;;;;6121003;23;20169;-91
2023/01/02 13:22:52;;;;;;;27.48;14.07;;;;;;;;;;6121446;23;20501;-90
2023/01/02 13:25:59;;;;;;;31.10;15.13;;;;;;;;;;6121554;23;20180;-90
2023/01/02 13:29:21;;;;;;;30.88;15.88;;;;;;;;;;6121243;23;20214;-88
2023/01/02 13:32:27;;;;;;;27.95;14.60;;;;;;;;;;6121306;23;20169;-88
2023/01/02 13:35:35;;;;;;;25.83;15.35;;;;;;;;;;6123453;23;20173;-89
2023/01/02 13:38:41;;;;;;;36.00;16.90;;;;;;;;;;6122166;23;20198;-88
2023/01/02 13:45:18;;;;;;;35.75;17.70;;;;;;;;;;6123102;23;20174;-88
2023/01/02 13:48:27;;;;;;;39.80;18.70;;;;;;;;;;6123940;23;20169;-90
2023/01/02 13:51:33;;;;;;;35.17;17.85;;;;;;;;;;6126367;23;20177;-89
2023/01/02 13:54:38;;;;;;;33.55;17.98;;;;;;;;;;6140000;23;20177;-89
2023/01/02 13:57:43;;;;;;;39.17;17.88;;;;;;;;;;6139883;23;20225;-90
2023/01/02 14:00:50;;;;;;;35.60;18.67;;;;;;;;;;6139543;23;20177;-89
2023/01/02 14:04:11;;;;;;;39.13;18.52;;;;;;;;;;6140208;23;20235;-92
2023/01/02 14:07:37;;;;;;;37.08;18.27;;;;;;;;;;6137922;23;20177;-87
2023/01/02 14:10:44;;;;;;;43.22;19.83;;;;;;;;;;6138903;23;20503;-90
2023/01/02 14:13:56;;;;;;;38.53;19.55;;;;;;;;;;6140516;23;20169;-87
2023/01/02 14:17:12;;;;;;;41.45;19.27;;;;;;;;;;6140532;23;20180;-89
2023/01/02 14:20:27;;;;;;;40.80;21.10;;;;;;;;;;6140166;23;20877;-89
2023/01/02 14:23:37;;;;;;;45.40;22.00;;;;;;;;;;6138847;23;20173;-89
2023/01/02 14:26:43;;;;;;;40.90;20.40;;;;;;;;;;6138783;23;20165;-90
2023/01/02 14:29:49;;;;;;;46.30;20.92;;;;;;;;;;6138676;23;20260;-89
2023/01/02 14:32:57;;;;;;;47.13;21.88;;;;;;;;;;6138990;23;20177;-91
2023/01/02 14:36:06;;;;;;;46.67;21.65;;;;;;;;;;6138604;23;20177;-90
2023/01/02 14:39:18;;;;;;;47.80;21.83;;;;;;;;;;6138187;23;20165;-88
2023/01/02 14:45:56;;;;;;;42.97;21.73;;;;;;;;;;6138332;23;20169;-89
2023/01/02 14:49:03;;;;;;;47.60;22.58;;;;;;;;;;6138454;23;20193;-90
2023/01/02 14:52:11;;;;;;;46.03;22.27;;;;;;;;;;6138050;23;20192;-87
2023/01/02 14:55:19;;;;;;;45.47;23.13;;;;;;;;;;6137689;23;20173;-89
2023/01/02 14:58:30;;;;;;;53.25;24.20;;;;;;;;;;6138179;23;20197;-87
2023/01/02 15:01:38;;;;;;;113.60;41.03;;;;;;;;;;6136792;23;20297;-89
2023/01/02 15:04:46;;;;;;;62.17;28.45;;;;;;;;;;6138566;23;20165;-89
2023/01/02 15:07:53;;;;;;;48.95;23.27;;;;;;;;;;6137186;23;20231;-89
2023/01/02 15:13:02;;;;;;;47.70;23.42;;;;;;;;;;6137318;23;20169;-87
2023/01/02 15:14:27;;;;;;;52.20;24.08;;;;;;;;;;6139864;23;20181;-88
2023/01/02 15:17:32;;;;;;;51.38;23.63;;;;;;;;;;6139337;23;20517;-90
2023/01/02 15:20:40;;;;;;;55.70;24.83;;;;;;;;;;6136736;23;20173;-88
2023/01/02 15:23:47;;;;;;;48.30;23.50;;;;;;;;;;6136918;23;20193;-90
2023/01/02 15:26:53;;;;;;;48.55;24.38;;;;;;;;;;6135573;23;20430;-88
2023/01/02 15:29:59;;;;;;;56.83;26.27;;;;;;;;;;6137578;23;20161;-88
2023/01/02 15:33:05;;;;;;;52.88;25.13;;;;;;;;;;6137690;23;20316;-88
2023/01/02 15:36:14;;;;;;;51.92;23.83;;;;;;;;;;6136283;23;20177;-89
2023/01/02 15:39:21;;;;;;;52.83;24.63;;;;;;;;;;6138325;23;20177;-90
2023/01/02 15:45:51;;;;;;;51.10;24.75;;;;;;;;;;6137395;23;20192;-88
2023/01/02 15:48:57;;;;;;;52.28;23.60;;;;;;;;;;6138152;23;20173;-89
2023/01/02 15:52:05;;;;;;;52.03;23.70;;;;;;;;;;6138599;23;20272;-89
2023/01/02 15:55:14;;;;;;;49.40;24.33;;;;;;;;;;6137880;23;20169;-88
2023/01/02 15:58:23;;;;;;;49.58;23.80;;;;;;;;;;6138737;23;20193;-90
2023/01/02 16:01:29;;;;;;;51.28;24.42;;;;;;;;;;6137829;23;20297;-88
2023/01/02 16:04:34;;;;;;;51.65;24.90;;;;;;;;;;6141221;23;20173;-90
2023/01/02 16:07:42;;;;;;;53.80;25.02;;;;;;;;;;6138098;23;20178;-91
2023/01/02 16:10:47;;;;;;;49.88;23.48;;;;;;;;;;6139236;23;20243;-90
2023/01/02 16:17:22;;;;;;;48.92;24.02;;;;;;;;;;6140494;23;20248;-88
2023/01/02 16:20:28;;;;;;;215.98;94.97;;;;;;;;;;6139566;23;20182;-89
2023/01/02 16:23:35;;;;;;;69.20;30.98;;;;;;;;;;6139447;23;20253;-89
2023/01/02 16:26:41;;;;;;;51.97;24.85;;;;;;;;;;6138144;23;20173;-89
2023/01/02 16:29:46;;;;;;;55.35;25.55;;;;;;;;;;6138346;23;20242;-88
2023/01/02 16:32:52;;;;;;;48.75;24.15;;;;;;;;;;6138439;23;20176;-89
2023/01/02 16:35:58;;;;;;;55.08;24.88;;;;;;;;;;6140273;23;20222;-89
2023/01/02 16:39:05;;;;;;;52.78;24.73;;;;;;;;;;6138032;23;20169;-87
2023/01/02 16:45:33;;;;;;;55.67;25.35;;;;;;;;;;6139730;23;20216;-89
2023/01/02 16:48:39;;;;;;;55.15;27.05;;;;;;;;;;6139314;23;20173;-90
2023/01/02 16:51:45;;;;;;;53.28;25.02;;;;;;;;;;6139433;23;20305;-89
2023/01/02 16:54:52;;;;;;;55.33;25.87;;;;;;;;;;6138973;23;20173;-89
2023/01/02 16:57:57;;;;;;;61.17;28.08;;;;;;;;;;6138614;23;20524;-90
2023/01/02 17:01:03;;;;;;;57.87;27.77;;;;;;;;;;6140490;23;20185;-86
2023/01/02 17:04:08;;;;;;;52.30;26.97;;;;;;;;;;6140160;23;20229;-91
2023/01/02 17:07:13;;;;;;;58.83;28.23;;;;;;;;;;6140788;23;20189;-89
2023/01/02 17:10:22;;;;;;;53.13;26.70;;;;;;;;;;6142576;23;20173;-89
2023/01/02 17:13:28;;;;;;;66.57;29.73;;;;;;;;;;6141158;23;20218;-89
2023/01/02 17:16:33;;;;;;;57.63;25.77;;;;;;;;;;6141419;23;20160;-88
2023/01/02 17:19:39;;;;;;;54.03;25.33;;;;;;;;;;6141220;23;20170;-90
2023/01/02 17:22:45;;;;;;;55.73;25.83;;;;;;;;;;6138259;23;20169;-90
2023/01/02 17:25:52;;;;;;;52.57;24.73;;;;;;;;;;6140468;23;20193;-89
2023/01/02 17:28:57;;;;;;;52.50;25.30;;;;;;;;;;6141332;23;20173;-89
2023/01/02 17:32:03;;;;;;;66.43;27.27;;;;;;;;;;6140648;23;20177;-87
2023/01/02 17:35:09;;;;;;;53.97;26.07;;;;;;;;;;6142406;23;20213;-87
2023/01/02 17:38:14;;;;;;;59.30;27.03;;;;;;;;;;6139379;23;20264;-90
2023/01/02 17:41:21;;;;;;;61.47;26.23;;;;;;;;;;6143221;23;20169;-88
2023/01/02 17:44:27;;;;;;;64.00;29.53;;;;;;;;;;6140368;23;20172;-89
2023/01/02 17:47:33;;;;;;;63.40;31.00;;;;;;;;;;6138726;23;20173;-88
2023/01/02 17:50:38;;;;;;;59.80;29.27;;;;;;;;;;6142190;23;20160;-89
2023/01/02 17:53:46;;;;;;;63.97;29.00;;;;;;;;;;6125517;23;20263;-89
2023/01/02 17:56:53;;;;;;;64.33;29.33;;;;;;;;;;6132166;23;20190;-91
2023/01/02 17:59:59;;;;;;;67.67;31.00;;;;;;;;;;6005940;23;20737;-92
2023/01/02 18:03:05;;;;;;;65.57;29.53;;;;;;;;;;5852170;24;20218;-88
2023/01/02 18:09:35;;;;;;;71.87;29.30;;;;;;;;;;5224476;26;20220;-88
2023/01/02 18:12:42;;;;;;;65.77;31.13;;;;;;;;;;5256893;26;20236;-90
2023/01/02 18:15:47;;;;;;;65.30;29.93;;;;;;;;;;5269497;26;20221;-91
2023/01/02 18:18:53;;;;;;;62.53;28.53;;;;;;;;;;5270534;26;20229;-89
2023/01/02 18:21:58;;;;;;;66.07;29.13;;;;;;;;;;5269597;27;20212;-89
2023/01/02 18:25:12;;;;;;;61.60;27.77;;;;;;;;;;5267713;27;20184;-88
2023/01/02 18:28:26;;;;;;;65.57;31.00;;;;;;;;;;5267108;27;20196;-89
2023/01/02 18:31:38;;;;;;;61.50;29.33;;;;;;;;;;5268342;27;20200;-89
2023/01/02 18:34:47;;;;;;;59.13;30.73;;;;;;;;;;5269496;27;20268;-90
2023/01/02 18:37:53;;;;;;;59.23;28.50;;;;;;;;;;5271358;26;20219;-89
2023/01/02 18:40:59;;;;;;;56.77;27.40;;;;;;;;;;5270411;26;20192;-91
2023/01/02 18:44:26;;;;;;;57.47;26.23;;;;;;;;;;5270154;27;20189;-88
2023/01/02 18:47:35;;;;;;;52.63;24.97;;;;;;;;;;5271626;26;20204;-89